sensor_id;sensor_type;location;lat;lon;timestamp;P1;durP1;ratioP1;P2;durP2;ratioP2
9461;SDS011;4769;42.660;23.262;2023-01-24T00:02:11;7.67;;;5.47;;
9461;SDS011;4769;42.660;23.262;2023-01-24T00:04:38;7.13;;;5.63;;
9461;SDS011;4769;42.660;23.262;2023-01-24T00:07:05;7.67;;;5.33;;
9461;SDS011;4769;42.660;23.262;2023-01-24T00:09:31;8.00;;;5.50;;
9461;SDS011;4769;42.660;23.262;2023-01-24T00:11:58;7.33;;;5.10;;
9461;SDS011;4769;42.660;23.262;2023-01-24T00:14:26;7.77;;;5.63;;
9461;SDS011;4769;42.660;23.262;2023-01-24T00:16:53;7.77;;;5.70;;
9461;SDS011;4769;42.660;23.262;2023-01-24T00:19:20;7.70;;;5.73;;
9461;SDS011;4769;42.660;23.262;2023-01-24T00:21:47;9.57;;;5.77;;
9461;SDS011;4769;42.660;23.262;2023-01-24T00:24:13;7.43;;;5.87;;
9461;SDS011;4769;42.660;23.262;2023-01-24T00:26:40;7.00;;;5.73;;
9461;SDS011;4769;42.660;23.262;2023-01-24T00:29:07;8.23;;;5.40;;
9461;SDS011;4769;42.660;23.262;2023-01-24T00:31:35;7.17;;;5.60;;
9461;SDS011;4769;42.660;23.262;2023-01-24T00:34:02;8.93;;;5.97;;
9461;SDS011;4769;42.660;23.262;2023-01-24T00:36:28;7.93;;;5.97;;
9461;SDS011;4769;42.660;23.262;2023-01-24T00:38:55;7.13;;;5.80;;
9461;SDS011;4769;42.660;23.262;2023-01-24T00:41:22;7.73;;;5.93;;
9461;SDS011;4769;42.660;23.262;2023-01-24T00:43:49;8.03;;;6.23;;
9461;SDS011;4769;42.660;23.262;2023-01-24T00:46:15;8.57;;;5.33;;
9461;SDS011;4769;42.660;23.262;2023-01-24T00:48:43;8.27;;;5.37;;
9461;SDS011;4769;42.660;23.262;2023-01-24T00:51:10;7.97;;;6.23;;
9461;SDS011;4769;42.660;23.262;2023-01-24T00:53:37;7.37;;;5.70;;
9461;SDS011;4769;42.660;23.262;2023-01-24T00:56:04;7.50;;;5.73;;
9461;SDS011;4769;42.660;23.262;2023-01-24T00:58:31;7.50;;;5.93;;
9461;SDS011;4769;42.660;23.262;2023-01-24T01:00:58;8.83;;;6.23;;
9461;SDS011;4769;42.660;23.262;2023-01-24T01:03:25;9.77;;;6.50;;
9461;SDS011;4769;42.660;23.262;2023-01-24T01:05:58;9.80;;;6.40;;
9461;SDS011;4769;42.660;23.262;2023-01-24T01:08:26;8.67;;;5.97;;
9461;SDS011;4769;42.660;23.262;2023-01-24T01:10:53;10.30;;;6.90;;
9461;SDS011;4769;42.660;23.262;2023-01-24T01:13:19;8.30;;;6.10;;
9461;SDS011;4769;42.660;23.262;2023-01-24T01:15:46;9.43;;;6.00;;
9461;SDS011;4769;42.660;23.262;2023-01-24T01:18:13;10.03;;;6.80;;
9461;SDS011;4769;42.660;23.262;2023-01-24T01:20:40;8.47;;;6.20;;
9461;SDS011;4769;42.660;23.262;2023-01-24T01:23:08;7.87;;;6.13;;
9461;SDS011;4769;42.660;23.262;2023-01-24T01:25:37;7.50;;;5.53;;
9461;SDS011;4769;42.660;23.262;2023-01-24T01:28:04;8.20;;;6.20;;
9461;SDS011;4769;42.660;23.262;2023-01-24T01:30:31;9.07;;;5.70;;
9461;SDS011;4769;42.660;23.262;2023-01-24T01:32:58;9.73;;;6.20;;
9461;SDS011;4769;42.660;23.262;2023-01-24T01:35:25;8.40;;;6.27;;
9461;SDS011;4769;42.660;23.262;2023-01-24T01:37:51;7.70;;;6.10;;
9461;SDS011;4769;42.660;23.262;2023-01-24T01:40:19;7.20;;;5.73;;
9461;SDS011;4769;42.660;23.262;2023-01-24T01:42:50;8.33;;;6.43;;
9461;SDS011;4769;42.660;23.262;2023-01-24T01:45:31;8.27;;;6.40;;
9461;SDS011;4769;42.660;23.262;2023-01-24T01:48:01;8.87;;;6.70;;
9461;SDS011;4769;42.660;23.262;2023-01-24T01:50:31;7.47;;;5.60;;
9461;SDS011;4769;42.660;23.262;2023-01-24T01:53:01;8.00;;;6.13;;
9461;SDS011;4769;42.660;23.262;2023-01-24T01:55:31;7.57;;;5.73;;
9461;SDS011;4769;42.660;23.262;2023-01-24T01:58:02;9.60;;;6.30;;
9461;SDS011;4769;42.660;23.262;2023-01-24T02:00:29;7.57;;;5.87;;
9461;SDS011;4769;42.660;23.262;2023-01-24T02:02:57;7.70;;;6.23;;
9461;SDS011;4769;42.660;23.262;2023-01-24T02:05:42;9.73;;;6.27;;
9461;SDS011;4769;42.660;23.262;2023-01-24T02:08:09;8.63;;;6.17;;
9461;SDS011;4769;42.660;23.262;2023-01-24T02:10:40;8.23;;;5.80;;
9461;SDS011;4769;42.660;23.262;2023-01-24T02:13:21;8.47;;;5.77;;
9461;SDS011;4769;42.660;23.262;2023-01-24T02:15:48;8.40;;;6.07;;
9461;SDS011;4769;42.660;23.262;2023-01-24T02:18:28;10.97;;;6.00;;
9461;SDS011;4769;42.660;23.262;2023-01-24T02:20:56;8.70;;;6.37;;
9461;SDS011;4769;42.660;23.262;2023-01-24T02:23:24;7.40;;;5.50;;
9461;SDS011;4769;42.660;23.262;2023-01-24T02:26:03;6.30;;;5.43;;
9461;SDS011;4769;42.660;23.262;2023-01-24T02:28:32;7.50;;;5.63;;
9461;SDS011;4769;42.660;23.262;2023-01-24T02:30:59;9.00;;;5.77;;
9461;SDS011;4769;42.660;23.262;2023-01-24T02:33:27;7.47;;;5.63;;
9461;SDS011;4769;42.660;23.262;2023-01-24T02:35:57;8.07;;;5.50;;
9461;SDS011;4769;42.660;23.262;2023-01-24T02:38:39;10.77;;;6.37;;
9461;SDS011;4769;42.660;23.262;2023-01-24T02:41:11;6.60;;;5.17;;
9461;SDS011;4769;42.660;23.262;2023-01-24T02:43:47;8.20;;;5.20;;
9461;SDS011;4769;42.660;23.262;2023-01-24T02:46:16;11.17;;;6.90;;
9461;SDS011;4769;42.660;23.262;2023-01-24T02:48:43;7.27;;;4.93;;
9461;SDS011;4769;42.660;23.262;2023-01-24T02:51:09;7.63;;;6.03;;
9461;SDS011;4769;42.660;23.262;2023-01-24T02:53:53;7.57;;;5.73;;
9461;SDS011;4769;42.660;23.262;2023-01-24T02:56:22;8.27;;;6.10;;
9461;SDS011;4769;42.660;23.262;2023-01-24T02:59:06;6.13;;;5.47;;
9461;SDS011;4769;42.660;23.262;2023-01-24T03:01:33;6.57;;;5.17;;
9461;SDS011;4769;42.660;23.262;2023-01-24T03:03:59;7.10;;;5.13;;
9461;SDS011;4769;42.660;23.262;2023-01-24T03:06:26;6.23;;;5.37;;
9461;SDS011;4769;42.660;23.262;2023-01-24T03:08:53;7.00;;;5.07;;
9461;SDS011;4769;42.660;23.262;2023-01-24T03:11:21;6.57;;;4.83;;
9461;SDS011;4769;42.660;23.262;2023-01-24T03:13:48;6.87;;;4.83;;
9461;SDS011;4769;42.660;23.262;2023-01-24T03:16:33;5.50;;;4.60;;
9461;SDS011;4769;42.660;23.262;2023-01-24T03:19:17;5.37;;;4.40;;
9461;SDS011;4769;42.660;23.262;2023-01-24T03:22:01;6.00;;;4.77;;
9461;SDS011;4769;42.660;23.262;2023-01-24T03:24:45;5.70;;;4.70;;
9461;SDS011;4769;42.660;23.262;2023-01-24T03:27:30;5.57;;;4.53;;
9461;SDS011;4769;42.660;23.262;2023-01-24T03:30:14;5.43;;;4.40;;
9461;SDS011;4769;42.660;23.262;2023-01-24T03:32:59;5.93;;;5.00;;
9461;SDS011;4769;42.660;23.262;2023-01-24T03:35:44;4.90;;;4.33;;
9461;SDS011;4769;42.660;23.262;2023-01-24T03:38:18;6.43;;;4.97;;
9461;SDS011;4769;42.660;23.262;2023-01-24T03:41:03;4.90;;;4.30;;
9461;SDS011;4769;42.660;23.262;2023-01-24T03:43:31;5.03;;;4.27;;
9461;SDS011;4769;42.660;23.262;2023-01-24T03:45:58;4.60;;;4.10;;
9461;SDS011;4769;42.660;23.262;2023-01-24T03:48:25;4.70;;;4.10;;
9461;SDS011;4769;42.660;23.262;2023-01-24T03:50:59;6.47;;;4.67;;
9461;SDS011;4769;42.660;23.262;2023-01-24T03:53:43;6.13;;;4.60;;
9461;SDS011;4769;42.660;23.262;2023-01-24T03:56:10;5.80;;;4.60;;
9461;SDS011;4769;42.660;23.262;2023-01-24T03:58:38;5.00;;;4.50;;
9461;SDS011;4769;42.660;23.262;2023-01-24T04:01:05;5.80;;;5.10;;
9461;SDS011;4769;42.660;23.262;2023-01-24T04:03:32;4.87;;;4.43;;
9461;SDS011;4769;42.660;23.262;2023-01-24T04:05:59;6.00;;;5.40;;
9461;SDS011;4769;42.660;23.262;2023-01-24T04:08:25;7.10;;;5.10;;
9461;SDS011;4769;42.660;23.262;2023-01-24T04:10:54;5.93;;;5.33;;
9461;SDS011;4769;42.660;23.262;2023-01-24T04:13:22;6.40;;;5.40;;
9461;SDS011;4769;42.660;23.262;2023-01-24T04:15:50;5.53;;;4.90;;
9461;SDS011;4769;42.660;23.262;2023-01-24T04:18:17;5.70;;;5.10;;
9461;SDS011;4769;42.660;23.262;2023-01-24T04:20:44;5.87;;;5.27;;
9461;SDS011;4769;42.660;23.262;2023-01-24T04:23:10;5.57;;;5.00;;
9461;SDS011;4769;42.660;23.262;2023-01-24T04:25:37;6.53;;;5.43;;
9461;SDS011;4769;42.660;23.262;2023-01-24T04:28:04;6.13;;;4.83;;
9461;SDS011;4769;42.660;23.262;2023-01-24T04:30:31;5.90;;;5.10;;
9461;SDS011;4769;42.660;23.262;2023-01-24T04:33:00;5.77;;;5.00;;
9461;SDS011;4769;42.660;23.262;2023-01-24T04:35:28;5.40;;;4.90;;
9461;SDS011;4769;42.660;23.262;2023-01-24T04:37:59;6.50;;;4.70;;
9461;SDS011;4769;42.660;23.262;2023-01-24T04:40:26;6.13;;;5.53;;
9461;SDS011;4769;42.660;23.262;2023-01-24T04:42:54;5.83;;;5.20;;
9461;SDS011;4769;42.660;23.262;2023-01-24T04:45:21;6.20;;;5.10;;
9461;SDS011;4769;42.660;23.262;2023-01-24T04:47:48;6.40;;;4.77;;
9461;SDS011;4769;42.660;23.262;2023-01-24T04:50:16;5.43;;;4.93;;
9461;SDS011;4769;42.660;23.262;2023-01-24T04:52:43;5.10;;;4.60;;
9461;SDS011;4769;42.660;23.262;2023-01-24T04:55:10;4.97;;;4.47;;
9461;SDS011;4769;42.660;23.262;2023-01-24T04:57:37;5.47;;;4.93;;
9461;SDS011;4769;42.660;23.262;2023-01-24T05:00:04;5.30;;;4.70;;
9461;SDS011;4769;42.660;23.262;2023-01-24T05:02:32;5.67;;;4.87;;
9461;SDS011;4769;42.660;23.262;2023-01-24T05:05:00;6.93;;;5.37;;
9461;SDS011;4769;42.660;23.262;2023-01-24T05:07:28;6.30;;;5.40;;
9461;SDS011;4769;42.660;23.262;2023-01-24T05:09:55;5.80;;;5.20;;
9461;SDS011;4769;42.660;23.262;2023-01-24T05:12:22;7.60;;;5.30;;
9461;SDS011;4769;42.660;23.262;2023-01-24T05:14:48;7.37;;;5.90;;
9461;SDS011;4769;42.660;23.262;2023-01-24T05:17:15;6.97;;;6.27;;
9461;SDS011;4769;42.660;23.262;2023-01-24T05:19:42;8.30;;;6.67;;
9461;SDS011;4769;42.660;23.262;2023-01-24T05:22:08;6.70;;;6.10;;
9461;SDS011;4769;42.660;23.262;2023-01-24T05:24:36;6.17;;;5.57;;
9461;SDS011;4769;42.660;23.262;2023-01-24T05:27:03;13.57;;;9.30;;
9461;SDS011;4769;42.660;23.262;2023-01-24T05:29:30;9.57;;;7.77;;
9461;SDS011;4769;42.660;23.262;2023-01-24T05:31:59;8.30;;;6.90;;
9461;SDS011;4769;42.660;23.262;2023-01-24T05:34:26;9.20;;;6.50;;
9461;SDS011;4769;42.660;23.262;2023-01-24T05:36:53;8.63;;;6.53;;
9461;SDS011;4769;42.660;23.262;2023-01-24T05:39:20;7.73;;;6.77;;
9461;SDS011;4769;42.660;23.262;2023-01-24T05:41:48;9.50;;;7.23;;
9461;SDS011;4769;42.660;23.262;2023-01-24T05:44:15;9.60;;;6.90;;
9461;SDS011;4769;42.660;23.262;2023-01-24T05:46:41;8.80;;;6.13;;
9461;SDS011;4769;42.660;23.262;2023-01-24T05:49:09;8.80;;;6.43;;
9461;SDS011;4769;42.660;23.262;2023-01-24T05:51:36;7.27;;;6.17;;
9461;SDS011;4769;42.660;23.262;2023-01-24T05:54:02;6.80;;;5.83;;
9461;SDS011;4769;42.660;23.262;2023-01-24T05:56:29;8.17;;;6.43;;
9461;SDS011;4769;42.660;23.262;2023-01-24T05:58:57;8.83;;;5.97;;
9461;SDS011;4769;42.660;23.262;2023-01-24T06:01:26;7.57;;;6.40;;
9461;SDS011;4769;42.660;23.262;2023-01-24T06:03:53;7.23;;;6.30;;
9461;SDS011;4769;42.660;23.262;2023-01-24T06:06:20;8.00;;;7.13;;
9461;SDS011;4769;42.660;23.262;2023-01-24T06:08:48;9.23;;;7.67;;
9461;SDS011;4769;42.660;23.262;2023-01-24T06:11:16;11.93;;;8.90;;
9461;SDS011;4769;42.660;23.262;2023-01-24T06:13:45;8.87;;;7.70;;
9461;SDS011;4769;42.660;23.262;2023-01-24T06:16:14;8.53;;;7.13;;
9461;SDS011;4769;42.660;23.262;2023-01-24T06:18:43;11.13;;;7.50;;
9461;SDS011;4769;42.660;23.262;2023-01-24T06:21:23;10.60;;;7.30;;
9461;SDS011;4769;42.660;23.262;2023-01-24T06:23:59;7.70;;;6.80;;
9461;SDS011;4769;42.660;23.262;2023-01-24T06:26:26;8.43;;;7.23;;
9461;SDS011;4769;42.660;23.262;2023-01-24T06:28:53;10.37;;;7.87;;
9461;SDS011;4769;42.660;23.262;2023-01-24T06:31:24;11.83;;;8.40;;
9461;SDS011;4769;42.660;23.262;2023-01-24T06:34:16;9.47;;;7.20;;
9461;SDS011;4769;42.660;23.262;2023-01-24T06:36:53;9.80;;;8.03;;
9461;SDS011;4769;42.660;23.262;2023-01-24T06:39:27;10.27;;;7.90;;
9461;SDS011;4769;42.660;23.262;2023-01-24T06:41:54;8.87;;;7.10;;
9461;SDS011;4769;42.660;23.262;2023-01-24T06:44:22;9.27;;;8.07;;
9461;SDS011;4769;42.660;23.262;2023-01-24T06:46:51;13.30;;;10.65;;
9461;SDS011;4769;42.660;23.262;2023-01-24T06:49:18;11.40;;;8.90;;
9461;SDS011;4769;42.660;23.262;2023-01-24T06:51:54;12.95;;;10.52;;
9461;SDS011;4769;42.660;23.262;2023-01-24T06:54:20;13.02;;;10.65;;
9461;SDS011;4769;42.660;23.262;2023-01-24T06:56:47;12.60;;;10.70;;
9461;SDS011;4769;42.660;23.262;2023-01-24T06:59:14;10.53;;;8.57;;
9461;SDS011;4769;42.660;23.262;2023-01-24T07:01:40;9.30;;;7.80;;
9461;SDS011;4769;42.660;23.262;2023-01-24T07:04:08;11.57;;;8.50;;
9461;SDS011;4769;42.660;23.262;2023-01-24T07:06:35;12.10;;;8.60;;
9461;SDS011;4769;42.660;23.262;2023-01-24T07:09:02;10.67;;;8.07;;
9461;SDS011;4769;42.660;23.262;2023-01-24T07:11:28;11.10;;;8.77;;
9461;SDS011;4769;42.660;23.262;2023-01-24T07:13:55;11.57;;;9.00;;
9461;SDS011;4769;42.660;23.262;2023-01-24T07:16:22;13.13;;;10.53;;
9461;SDS011;4769;42.660;23.262;2023-01-24T07:18:49;9.10;;;7.60;;
9461;SDS011;4769;42.660;23.262;2023-01-24T07:21:18;11.07;;;9.33;;
9461;SDS011;4769;42.660;23.262;2023-01-24T07:23:45;11.73;;;7.90;;
9461;SDS011;4769;42.660;23.262;2023-01-24T07:26:14;11.70;;;8.80;;
9461;SDS011;4769;42.660;23.262;2023-01-24T07:28:41;11.27;;;8.63;;
9461;SDS011;4769;42.660;23.262;2023-01-24T07:31:09;10.47;;;7.47;;
9461;SDS011;4769;42.660;23.262;2023-01-24T07:33:38;9.53;;;8.00;;
9461;SDS011;4769;42.660;23.262;2023-01-24T07:36:10;10.93;;;8.97;;
9461;SDS011;4769;42.660;23.262;2023-01-24T07:38:39;10.07;;;8.83;;
9461;SDS011;4769;42.660;23.262;2023-01-24T07:41:06;10.83;;;8.77;;
9461;SDS011;4769;42.660;23.262;2023-01-24T07:43:33;10.70;;;8.80;;
9461;SDS011;4769;42.660;23.262;2023-01-24T07:46:00;14.33;;;9.60;;
9461;SDS011;4769;42.660;23.262;2023-01-24T07:48:28;10.80;;;8.33;;
9461;SDS011;4769;42.660;23.262;2023-01-24T07:50:57;13.03;;;9.73;;
9461;SDS011;4769;42.660;23.262;2023-01-24T07:53:24;11.47;;;9.10;;
9461;SDS011;4769;42.660;23.262;2023-01-24T07:55:52;12.83;;;10.17;;
9461;SDS011;4769;42.660;23.262;2023-01-24T07:58:19;16.00;;;12.33;;
9461;SDS011;4769;42.660;23.262;2023-01-24T08:00:46;17.07;;;11.07;;
9461;SDS011;4769;42.660;23.262;2023-01-24T08:03:13;13.20;;;8.23;;
9461;SDS011;4769;42.660;23.262;2023-01-24T08:05:40;13.13;;;8.73;;
9461;SDS011;4769;42.660;23.262;2023-01-24T08:08:06;13.60;;;9.70;;
9461;SDS011;4769;42.660;23.262;2023-01-24T08:10:33;18.60;;;11.40;;
9461;SDS011;4769;42.660;23.262;2023-01-24T08:13:01;20.20;;;14.67;;
9461;SDS011;4769;42.660;23.262;2023-01-24T08:15:28;12.43;;;8.93;;
9461;SDS011;4769;42.660;23.262;2023-01-24T08:17:55;10.73;;;8.20;;
9461;SDS011;4769;42.660;23.262;2023-01-24T08:20:22;11.63;;;8.67;;
9461;SDS011;4769;42.660;23.262;2023-01-24T08:22:53;13.03;;;9.10;;
9461;SDS011;4769;42.660;23.262;2023-01-24T08:25:21;13.47;;;9.30;;
9461;SDS011;4769;42.660;23.262;2023-01-24T08:27:48;10.63;;;8.80;;
9461;SDS011;4769;42.660;23.262;2023-01-24T08:30:16;9.20;;;7.83;;
9461;SDS011;4769;42.660;23.262;2023-01-24T08:32:43;8.37;;;6.57;;
9461;SDS011;4769;42.660;23.262;2023-01-24T08:35:10;10.90;;;7.73;;
9461;SDS011;4769;42.660;23.262;2023-01-24T08:37:37;7.47;;;6.23;;
9461;SDS011;4769;42.660;23.262;2023-01-24T08:40:04;9.63;;;6.97;;
9461;SDS011;4769;42.660;23.262;2023-01-24T08:42:32;12.87;;;7.90;;
9461;SDS011;4769;42.660;23.262;2023-01-24T08:44:59;10.63;;;6.73;;
9461;SDS011;4769;42.660;23.262;2023-01-24T08:47:27;7.57;;;6.13;;
9461;SDS011;4769;42.660;23.262;2023-01-24T08:49:54;8.90;;;6.20;;
9461;SDS011;4769;42.660;23.262;2023-01-24T08:52:20;11.83;;;6.10;;
9461;SDS011;4769;42.660;23.262;2023-01-24T08:54:47;9.17;;;7.60;;
9461;SDS011;4769;42.660;23.262;2023-01-24T08:57:14;9.23;;;6.67;;
9461;SDS011;4769;42.660;23.262;2023-01-24T08:59:41;11.07;;;7.00;;
9461;SDS011;4769;42.660;23.262;2023-01-24T09:02:08;9.00;;;6.30;;
9461;SDS011;4769;42.660;23.262;2023-01-24T09:04:37;8.60;;;6.57;;
9461;SDS011;4769;42.660;23.262;2023-01-24T09:07:03;9.57;;;6.60;;
9461;SDS011;4769;42.660;23.262;2023-01-24T09:09:30;9.23;;;6.63;;
9461;SDS011;4769;42.660;23.262;2023-01-24T09:11:57;10.43;;;7.50;;
9461;SDS011;4769;42.660;23.262;2023-01-24T09:14:23;9.73;;;6.17;;
9461;SDS011;4769;42.660;23.262;2023-01-24T09:16:50;8.33;;;5.93;;
9461;SDS011;4769;42.660;23.262;2023-01-24T09:19:17;8.03;;;7.23;;
9461;SDS011;4769;42.660;23.262;2023-01-24T09:21:45;9.93;;;7.40;;
9461;SDS011;4769;42.660;23.262;2023-01-24T09:24:16;11.67;;;8.00;;
9461;SDS011;4769;42.660;23.262;2023-01-24T09:26:43;11.27;;;8.80;;
9461;SDS011;4769;42.660;23.262;2023-01-24T09:29:10;11.53;;;9.43;;
9461;SDS011;4769;42.660;23.262;2023-01-24T09:31:37;14.30;;;8.63;;
9461;SDS011;4769;42.660;23.262;2023-01-24T09:34:04;12.60;;;8.30;;
9461;SDS011;4769;42.660;23.262;2023-01-24T09:38:59;7.93;;;7.07;;
9461;SDS011;4769;42.660;23.262;2023-01-24T09:41:28;10.20;;;7.20;;
9461;SDS011;4769;42.660;23.262;2023-01-24T09:44:04;9.67;;;7.03;;
9461;SDS011;4769;42.660;23.262;2023-01-24T09:46:40;8.97;;;6.83;;
9461;SDS011;4769;42.660;23.262;2023-01-24T09:49:12;10.10;;;7.37;;
9461;SDS011;4769;42.660;23.262;2023-01-24T09:51:44;7.30;;;6.23;;
9461;SDS011;4769;42.660;23.262;2023-01-24T09:54:17;9.17;;;7.07;;
9461;SDS011;4769;42.660;23.262;2023-01-24T09:56:54;8.67;;;6.90;;
9461;SDS011;4769;42.660;23.262;2023-01-24T09:59:32;8.47;;;6.80;;
9461;SDS011;4769;42.660;23.262;2023-01-24T10:02:11;7.63;;;6.43;;
9461;SDS011;4769;42.660;23.262;2023-01-24T10:04:41;10.90;;;7.57;;
9461;SDS011;4769;42.660;23.262;2023-01-24T10:10:20;9.07;;;7.70;;
9461;SDS011;4769;42.660;23.262;2023-01-24T10:13:01;9.60;;;7.57;;
9461;SDS011;4769;42.660;23.262;2023-01-24T10:15:36;8.47;;;7.57;;
9461;SDS011;4769;42.660;23.262;2023-01-24T10:21:00;9.27;;;7.50;;
9461;SDS011;4769;42.660;23.262;2023-01-24T10:23:40;8.23;;;7.33;;
9461;SDS011;4769;42.660;23.262;2023-01-24T10:26:14;9.87;;;8.03;;
9461;SDS011;4769;42.660;23.262;2023-01-24T10:28:45;11.53;;;8.83;;
9461;SDS011;4769;42.660;23.262;2023-01-24T10:31:17;8.90;;;7.07;;
9461;SDS011;4769;42.660;23.262;2023-01-24T10:33:50;6.90;;;6.20;;
9461;SDS011;4769;42.660;23.262;2023-01-24T10:36:21;6.87;;;5.77;;
9461;SDS011;4769;42.660;23.262;2023-01-24T10:38:56;6.60;;;5.20;;
9461;SDS011;4769;42.660;23.262;2023-01-24T10:41:25;7.17;;;5.67;;
9461;SDS011;4769;42.660;23.262;2023-01-24T10:43:58;7.40;;;5.67;;
9461;SDS011;4769;42.660;23.262;2023-01-24T10:46:41;8.17;;;5.70;;
9461;SDS011;4769;42.660;23.262;2023-01-24T10:49:17;6.73;;;5.57;;
9461;SDS011;4769;42.660;23.262;2023-01-24T10:54:50;4.63;;;4.17;;
9461;SDS011;4769;42.660;23.262;2023-01-24T10:57:30;6.53;;;4.57;;
9461;SDS011;4769;42.660;23.262;2023-01-24T11:00:03;6.20;;;3.60;;
9461;SDS011;4769;42.660;23.262;2023-01-24T11:02:33;5.00;;;4.40;;
9461;SDS011;4769;42.660;23.262;2023-01-24T11:05:00;6.57;;;5.73;;
9461;SDS011;4769;42.660;23.262;2023-01-24T11:07:31;7.60;;;5.33;;
9461;SDS011;4769;42.660;23.262;2023-01-24T11:10:06;5.30;;;4.70;;
9461;SDS011;4769;42.660;23.262;2023-01-24T11:12:47;4.23;;;3.57;;
9461;SDS011;4769;42.660;23.262;2023-01-24T11:15:18;5.43;;;4.73;;
9461;SDS011;4769;42.660;23.262;2023-01-24T11:17:48;5.30;;;4.50;;
9461;SDS011;4769;42.660;23.262;2023-01-24T11:20:24;9.70;;;5.83;;
9461;SDS011;4769;42.660;23.262;2023-01-24T11:23:01;11.63;;;6.87;;
9461;SDS011;4769;42.660;23.262;2023-01-24T11:25:32;7.97;;;5.10;;
9461;SDS011;4769;42.660;23.262;2023-01-24T11:28:00;6.57;;;5.07;;
9461;SDS011;4769;42.660;23.262;2023-01-24T11:30:27;5.93;;;4.63;;
9461;SDS011;4769;42.660;23.262;2023-01-24T11:33:05;6.17;;;4.27;;
9461;SDS011;4769;42.660;23.262;2023-01-24T11:35:51;6.70;;;4.17;;
9461;SDS011;4769;42.660;23.262;2023-01-24T11:38:22;7.90;;;5.37;;
9461;SDS011;4769;42.660;23.262;2023-01-24T11:41:05;4.47;;;3.97;;
9461;SDS011;4769;42.660;23.262;2023-01-24T11:46:51;5.17;;;3.87;;
9461;SDS011;4769;42.660;23.262;2023-01-24T11:49:36;5.20;;;4.37;;
9461;SDS011;4769;42.660;23.262;2023-01-24T11:52:28;5.30;;;4.80;;
9461;SDS011;4769;42.660;23.262;2023-01-24T11:55:14;5.67;;;4.20;;
9461;SDS011;4769;42.660;23.262;2023-01-24T11:58:10;5.80;;;4.30;;
9461;SDS011;4769;42.660;23.262;2023-01-24T12:01:01;4.50;;;4.10;;
9461;SDS011;4769;42.660;23.262;2023-01-24T12:06:42;6.43;;;4.53;;
9461;SDS011;4769;42.660;23.262;2023-01-24T12:09:17;6.23;;;4.40;;
9461;SDS011;4769;42.660;23.262;2023-01-24T12:11:49;4.40;;;3.80;;
9461;SDS011;4769;42.660;23.262;2023-01-24T12:14:39;5.03;;;4.13;;
9461;SDS011;4769;42.660;23.262;2023-01-24T12:17:29;5.27;;;4.27;;
9461;SDS011;4769;42.660;23.262;2023-01-24T12:20:12;8.70;;;6.50;;
9461;SDS011;4769;42.660;23.262;2023-01-24T12:22:50;5.00;;;4.50;;
9461;SDS011;4769;42.660;23.262;2023-01-24T12:25:20;5.37;;;4.33;;
9461;SDS011;4769;42.660;23.262;2023-01-24T12:27:53;7.13;;;5.17;;
9461;SDS011;4769;42.660;23.262;2023-01-24T12:30:23;6.83;;;5.90;;
9461;SDS011;4769;42.660;23.262;2023-01-24T12:32:59;7.67;;;5.87;;
9461;SDS011;4769;42.660;23.262;2023-01-24T12:35:29;5.83;;;4.67;;
9461;SDS011;4769;42.660;23.262;2023-01-24T12:38:01;6.07;;;4.10;;
9461;SDS011;4769;42.660;23.262;2023-01-24T12:40:35;4.83;;;4.20;;
9461;SDS011;4769;42.660;23.262;2023-01-24T12:43:13;6.57;;;5.47;;
9461;SDS011;4769;42.660;23.262;2023-01-24T12:45:47;6.10;;;5.50;;
9461;SDS011;4769;42.660;23.262;2023-01-24T12:48:25;4.90;;;4.20;;
9461;SDS011;4769;42.660;23.262;2023-01-24T12:51:03;7.63;;;4.60;;
9461;SDS011;4769;42.660;23.262;2023-01-24T12:53:40;6.53;;;4.57;;
9461;SDS011;4769;42.660;23.262;2023-01-24T12:56:13;5.33;;;4.53;;
9461;SDS011;4769;42.660;23.262;2023-01-24T12:58:45;5.67;;;4.30;;
9461;SDS011;4769;42.660;23.262;2023-01-24T13:04:30;4.73;;;4.13;;
9461;SDS011;4769;42.660;23.262;2023-01-24T13:07:08;4.80;;;4.03;;
9461;SDS011;4769;42.660;23.262;2023-01-24T13:09:47;4.67;;;3.33;;
9461;SDS011;4769;42.660;23.262;2023-01-24T13:12:23;5.83;;;3.70;;
9461;SDS011;4769;42.660;23.262;2023-01-24T13:14:52;4.40;;;4.00;;
9461;SDS011;4769;42.660;23.262;2023-01-24T13:17:26;5.10;;;3.60;;
9461;SDS011;4769;42.660;23.262;2023-01-24T13:20:10;4.63;;;3.80;;
9461;SDS011;4769;42.660;23.262;2023-01-24T13:23:00;5.17;;;4.30;;
9461;SDS011;4769;42.660;23.262;2023-01-24T13:28:40;4.60;;;3.67;;
9461;SDS011;4769;42.660;23.262;2023-01-24T13:31:19;4.13;;;3.67;;
9461;SDS011;4769;42.660;23.262;2023-01-24T13:33:54;4.40;;;4.00;;
9461;SDS011;4769;42.660;23.262;2023-01-24T13:36:26;5.90;;;4.10;;
9461;SDS011;4769;42.660;23.262;2023-01-24T13:38:58;4.27;;;3.87;;
9461;SDS011;4769;42.660;23.262;2023-01-24T13:41:32;3.40;;;3.10;;
9461;SDS011;4769;42.660;23.262;2023-01-24T13:44:00;3.83;;;3.50;;
9461;SDS011;4769;42.660;23.262;2023-01-24T13:49:33;5.30;;;4.10;;
9461;SDS011;4769;42.660;23.262;2023-01-24T13:52:03;5.97;;;4.80;;
9461;SDS011;4769;42.660;23.262;2023-01-24T13:54:50;6.37;;;4.37;;
9461;SDS011;4769;42.660;23.262;2023-01-24T13:57:19;5.13;;;4.57;;
9461;SDS011;4769;42.660;23.262;2023-01-24T14:02:57;4.37;;;3.70;;
9461;SDS011;4769;42.660;23.262;2023-01-24T14:08:31;4.13;;;3.73;;
9461;SDS011;4769;42.660;23.262;2023-01-24T14:14:26;4.03;;;3.63;;
9461;SDS011;4769;42.660;23.262;2023-01-24T14:17:27;4.70;;;4.20;;
9461;SDS011;4769;42.660;23.262;2023-01-24T14:23:13;7.27;;;5.97;;
9461;SDS011;4769;42.660;23.262;2023-01-24T14:25:52;7.57;;;4.70;;
9461;SDS011;4769;42.660;23.262;2023-01-24T14:28:31;5.53;;;5.00;;
9461;SDS011;4769;42.660;23.262;2023-01-24T14:31:05;4.47;;;4.03;;
9461;SDS011;4769;42.660;23.262;2023-01-24T14:33:50;7.00;;;5.27;;
9461;SDS011;4769;42.660;23.262;2023-01-24T14:36:24;6.87;;;5.30;;
9461;SDS011;4769;42.660;23.262;2023-01-24T14:39:12;6.63;;;5.50;;
9461;SDS011;4769;42.660;23.262;2023-01-24T14:41:46;5.50;;;4.87;;
9461;SDS011;4769;42.660;23.262;2023-01-24T14:44:15;5.00;;;4.50;;
9461;SDS011;4769;42.660;23.262;2023-01-24T14:46:50;6.57;;;5.10;;
9461;SDS011;4769;42.660;23.262;2023-01-24T14:49:24;6.47;;;4.87;;
9461;SDS011;4769;42.660;23.262;2023-01-24T14:51:52;7.03;;;5.47;;
9461;SDS011;4769;42.660;23.262;2023-01-24T14:54:20;5.67;;;4.90;;
9461;SDS011;4769;42.660;23.262;2023-01-24T14:56:49;7.77;;;5.50;;
9461;SDS011;4769;42.660;23.262;2023-01-24T14:59:16;6.93;;;5.73;;
9461;SDS011;4769;42.660;23.262;2023-01-24T15:01:44;9.37;;;5.50;;
9461;SDS011;4769;42.660;23.262;2023-01-24T15:04:24;10.13;;;6.57;;
9461;SDS011;4769;42.660;23.262;2023-01-24T15:07:10;5.40;;;4.80;;
9461;SDS011;4769;42.660;23.262;2023-01-24T15:09:42;6.13;;;5.17;;
9461;SDS011;4769;42.660;23.262;2023-01-24T15:12:16;7.97;;;5.43;;
9461;SDS011;4769;42.660;23.262;2023-01-24T15:14:50;8.80;;;5.67;;
9461;SDS011;4769;42.660;23.262;2023-01-24T15:17:20;10.93;;;6.53;;
9461;SDS011;4769;42.660;23.262;2023-01-24T15:19:49;6.73;;;5.03;;
9461;SDS011;4769;42.660;23.262;2023-01-24T15:22:21;5.70;;;5.10;;
9461;SDS011;4769;42.660;23.262;2023-01-24T15:24:49;5.80;;;5.13;;
9461;SDS011;4769;42.660;23.262;2023-01-24T15:27:39;5.70;;;5.10;;
9461;SDS011;4769;42.660;23.262;2023-01-24T15:30:12;6.50;;;5.10;;
9461;SDS011;4769;42.660;23.262;2023-01-24T15:32:42;8.83;;;5.70;;
9461;SDS011;4769;42.660;23.262;2023-01-24T15:35:20;6.30;;;5.70;;
9461;SDS011;4769;42.660;23.262;2023-01-24T15:37:59;6.47;;;5.67;;
9461;SDS011;4769;42.660;23.262;2023-01-24T15:40:48;6.43;;;5.80;;
9461;SDS011;4769;42.660;23.262;2023-01-24T15:43:26;6.20;;;5.60;;
9461;SDS011;4769;42.660;23.262;2023-01-24T15:46:22;7.30;;;5.93;;
9461;SDS011;4769;42.660;23.262;2023-01-24T15:49:22;6.70;;;5.73;;
9461;SDS011;4769;42.660;23.262;2023-01-24T15:52:02;5.53;;;5.00;;
9461;SDS011;4769;42.660;23.262;2023-01-24T15:54:44;6.23;;;5.60;;
9461;SDS011;4769;42.660;23.262;2023-01-24T15:57:17;5.63;;;5.03;;
9461;SDS011;4769;42.660;23.262;2023-01-24T15:59:49;6.03;;;5.23;;
9461;SDS011;4769;42.660;23.262;2023-01-24T16:02:18;5.90;;;5.13;;
9461;SDS011;4769;42.660;23.262;2023-01-24T16:04:45;6.07;;;5.30;;